createdAt,value
2019-02-07T00:02:38.697Z,99223.41
2019-02-07T00:07:40.007Z,99215.78
2019-02-07T00:12:41.500Z,99198.75
2019-02-07T00:17:42.853Z,99198.23
2019-02-07T00:22:44.162Z,99194.08
2019-02-07T00:27:45.471Z,99187.51
2019-02-07T00:32:46.794Z,99181.39
2019-02-07T00:37:48.342Z,99177.22
2019-02-07T00:42:49.939Z,99180.33
2019-02-07T00:47:51.337Z,99172.50
2019-02-07T00:52:52.652Z,99180.77
2019-02-07T00:57:54.759Z,99173.89
2019-02-07T01:02:56.717Z,99176.77
2019-02-07T01:07:58.184Z,99169.23
2019-02-07T01:12:59.836Z,99165.17
2019-02-07T01:18:01.135Z,99165.47
2019-02-07T01:23:02.490Z,99163.73
2019-02-07T01:28:03.805Z,99168.25
2019-02-07T01:33:05.090Z,99165.37
2019-02-07T01:38:07.954Z,99157.23
2019-02-07T01:43:09.377Z,99158.48
2019-02-07T01:48:10.678Z,99146.70
2019-02-07T01:53:11.959Z,99141.80
2019-02-07T01:58:13.234Z,99134.11
2019-02-07T02:03:14.983Z,99123.36
2019-02-07T02:08:16.686Z,99113.23
2019-02-07T02:13:18.026Z,99105.15
2019-02-07T02:18:19.791Z,99095.31
2019-02-07T02:23:21.191Z,99096.59
2019-02-07T02:28:22.607Z,99089.71
2019-02-07T02:33:24.024Z,99091.61
2019-02-07T02:38:25.255Z,99093.87
2019-02-07T02:43:26.435Z,99085.68
2019-02-07T02:48:27.684Z,99072.38
2019-02-07T02:53:28.890Z,99076.59
2019-02-07T02:58:30.322Z,99080.42
2019-02-07T03:03:33.486Z,99083.88
2019-02-07T03:08:42.774Z,99075.98
2019-02-07T03:13:51.777Z,99054.50
2019-02-07T03:19:10.165Z,99037.31
2019-02-07T03:24:13.319Z,99047.22
2019-02-07T03:29:22.495Z,99039.17
2019-02-07T03:34:28.869Z,99032.04
2019-02-07T03:39:32.047Z,99018.51
2019-02-07T03:44:52.026Z,99026.07
2019-02-07T03:50:01.516Z,99021.77
2019-02-07T03:55:12.114Z,99015.30
2019-02-07T04:00:18.328Z,99007.76
2019-02-07T04:05:21.629Z,98988.16
2019-02-07T04:10:24.897Z,98989.78
2019-02-07T04:15:28.501Z,98996.36
2019-02-07T04:20:48.070Z,99009.74
2019-02-07T04:26:03.870Z,99014.50
2019-02-07T04:31:12.829Z,99005.58
2019-02-07T04:36:16.112Z,98984.11
2019-02-07T04:41:36.025Z,99010.37
2019-02-07T04:46:48.469Z,99000.34
2019-02-07T04:52:08.974Z,98977.05
2019-02-07T04:57:14.986Z,98978.90
2019-02-07T05:02:33.470Z,98978.55
2019-02-07T05:07:54.040Z,98972.86
2019-02-07T05:13:15.564Z,98982.16
2019-02-07T05:18:36.651Z,98972.53
2019-02-07T05:23:46.036Z,98954.14
2019-02-07T05:29:07.519Z,98958.68
2019-02-07T05:34:13.817Z,98952.78
2019-02-07T05:39:17.310Z,98949.60
2019-02-07T05:44:29.485Z,98953.34
2019-02-07T05:49:41.342Z,98950.86
2019-02-07T05:55:00.996Z,98960.13
2019-02-07T06:00:23.489Z,98952.68
2019-02-07T06:05:43.441Z,98948.56
2019-02-07T06:11:03.519Z,98950.76
2019-02-07T06:16:07.147Z,98947.06
2019-02-07T06:21:22.780Z,98945.34
2019-02-07T06:26:35.508Z,98935.03
2019-02-07T06:31:55.561Z,98938.05
2019-02-07T06:36:58.788Z,98937.41
2019-02-07T06:42:08.432Z,98938.09
2019-02-07T06:47:13.451Z,98931.95
2019-02-07T06:52:33.721Z,98931.88
2019-02-07T06:57:52.447Z,98939.02
2019-02-07T07:02:55.715Z,98920.06
2019-02-07T07:08:04.797Z,98922.17
2019-02-07T07:13:14.238Z,98922.68
2019-02-07T07:18:34.134Z,98921.36
2019-02-07T07:23:37.493Z,98921.84
2019-02-07T07:28:43.764Z,98917.22
2019-02-07T07:33:59.220Z,98921.03
2019-02-07T07:39:14.622Z,98916.25
2019-02-07T07:44:23.846Z,98914.78
2019-02-07T07:49:38.888Z,98911.20
2019-02-07T07:54:59.655Z,98904.05
2019-02-07T08:00:05.372Z,98896.47
2019-02-07T08:05:14.716Z,98889.95
2019-02-07T08:10:34.896Z,98887.34
2019-02-07T08:15:55.121Z,98881.48
2019-02-07T08:20:58.414Z,98875.08
2019-02-07T08:26:04.588Z,98860.73
2019-02-07T08:31:07.812Z,98864.19
2019-02-07T08:36:18.177Z,98861.12
2019-02-07T08:41:21.592Z,98868.45
2019-02-07T08:46:41.255Z,98862.30
2019-02-07T08:51:53.617Z,98856.69
2019-02-07T08:56:56.894Z,98861.64
2019-02-07T09:02:15.081Z,98855.04
2019-02-07T09:07:18.515Z,98846.52
2019-02-07T09:12:38.614Z,98840.69
2019-02-07T09:17:44.755Z,98840.97
2019-02-07T09:22:55.979Z,98831.66
2019-02-07T09:27:59.198Z,98828.17
2019-02-07T09:33:18.877Z,98829.48
2019-02-07T09:38:40.553Z,98830.55
2019-02-07T09:43:46.733Z,98826.31
2019-02-07T09:48:58.640Z,98814.16
2019-02-07T09:54:04.784Z,98815.08
2019-02-07T09:59:08.043Z,98823.88
2019-02-07T10:04:15.351Z,98819.37
2019-02-07T10:09:18.522Z,98807.23
2019-02-07T10:14:21.614Z,98809.70
2019-02-07T10:19:42.704Z,98816.30
2019-02-07T10:24:58.252Z,98821.08
2019-02-07T10:30:02.432Z,98812.03
2019-02-07T10:35:09.697Z,98819.52
2019-02-07T10:40:16.671Z,98812.55
2019-02-07T10:45:22.794Z,98803.08
2019-02-07T10:50:38.274Z,98806.00
2019-02-07T10:56:00.349Z,98803.80
2019-02-07T11:01:06.457Z,98799.77
2019-02-07T11:06:18.654Z,98789.31
2019-02-07T11:11:30.951Z,98777.80
2019-02-07T11:16:42.833Z,98776.31
2019-02-07T11:22:02.795Z,98769.50
2019-02-07T11:27:18.379Z,98762.63
2019-02-07T11:32:38.451Z,98764.75
2019-02-07T11:37:59.904Z,98768.53
2019-02-07T11:43:09.657Z,98756.63
2019-02-07T11:48:13.052Z,98751.90
2019-02-07T11:53:32.697Z,98755.52
2019-02-07T11:58:38.863Z,98753.50
2019-02-07T12:03:45.403Z,98748.06
2019-02-07T12:08:51.533Z,98746.91
2019-02-07T12:14:09.900Z,98749.09
2019-02-07T12:19:25.206Z,98741.72
2019-02-07T12:24:34.722Z,98741.13
2019-02-07T12:29:44.684Z,98736.71
2019-02-07T12:34:50.434Z,98735.37
2019-02-07T12:39:53.590Z,98729.31
2019-02-07T12:45:12.244Z,98730.44
2019-02-07T12:50:15.479Z,98728.59
2019-02-07T12:55:21.486Z,98729.56
2019-02-07T13:00:41.755Z,98727.44
2019-02-07T13:06:01.736Z,98731.13
2019-02-07T13:11:15.048Z,98728.46
2019-02-07T13:16:36.368Z,98726.41
2019-02-07T13:21:56.511Z,98720.67
2019-02-07T13:27:02.428Z,98715.70
2019-02-07T13:32:10.390Z,98709.68
2019-02-07T13:37:17.775Z,98713.00
2019-02-07T13:42:32.958Z,98704.73
2019-02-07T13:47:42.051Z,98717.09
2019-02-07T13:52:51.457Z,98714.11
2019-02-07T13:58:11.906Z,98711.18
2019-02-07T14:03:33.420Z,98706.25
2019-02-07T14:08:40.482Z,98704.09
2019-02-07T14:13:59.866Z,98713.45
2019-02-07T14:19:03.339Z,98714.16
2019-02-07T14:24:09.513Z,98710.46
2019-02-07T14:29:29.657Z,98724.27
2019-02-07T14:34:41.928Z,98730.58
2019-02-07T14:39:47.981Z,98734.08
2019-02-07T14:44:53.844Z,98730.97
2019-02-07T14:49:55.329Z,98717.70
2019-02-07T14:54:57.560Z,98726.69
2019-02-07T14:59:58.858Z,98717.75
2019-02-07T15:05:00.532Z,98732.43
2019-02-07T15:10:01.950Z,98732.62
2019-02-07T15:15:09.078Z,98736.08
2019-02-07T15:20:11.416Z,98742.59
2019-02-07T15:25:12.985Z,98745.42
2019-02-07T15:30:16.482Z,98754.61
2019-02-07T15:35:24.244Z,98765.78
2019-02-07T15:40:25.862Z,98769.02
2019-02-07T15:45:27.440Z,98761.80
2019-02-07T15:50:37.657Z,98764.98
2019-02-07T15:55:34.187Z,98764.84
2019-02-07T16:00:43.358Z,98768.17
2019-02-07T16:05:45.261Z,98766.58
2019-02-07T16:10:46.619Z,98757.97
2019-02-07T16:15:48.305Z,98753.88
2019-02-07T16:20:49.634Z,98756.89
2019-02-07T16:25:51.301Z,98767.44
2019-02-07T16:30:54.517Z,98781.91
2019-02-07T16:35:55.784Z,98787.86
2019-02-07T16:40:57.213Z,98783.22
2019-02-07T16:45:58.885Z,98781.06
2019-02-07T16:51:00.643Z,98777.48
2019-02-07T16:56:02.192Z,98780.52
2019-02-07T17:01:04.387Z,98775.91
2019-02-07T17:06:05.775Z,98791.28
2019-02-07T17:11:07.056Z,98797.37
2019-02-07T17:16:08.452Z,98810.38
2019-02-07T17:21:12.468Z,98800.20
2019-02-07T17:26:13.259Z,98808.09
2019-02-07T17:31:14.521Z,98829.11
2019-02-07T17:36:17.007Z,98835.99
2019-02-07T17:41:18.428Z,98844.69
2019-02-07T17:46:19.708Z,98846.05
2019-02-07T17:51:23.300Z,98844.14
2019-02-07T17:56:24.494Z,98857.20
2019-02-07T18:01:26.026Z,98862.89
2019-02-07T18:06:27.721Z,98863.98
2019-02-07T18:11:29.139Z,98880.13
2019-02-07T18:16:31.019Z,98884.47
2019-02-07T18:21:34.199Z,98890.28
2019-02-07T18:26:35.688Z,98893.44
2019-02-07T18:31:37.370Z,98886.14
2019-02-07T18:36:39.054Z,98895.02
2019-02-07T18:41:40.313Z,98909.81
2019-02-07T18:46:41.901Z,98916.94
2019-02-07T18:51:45.721Z,98932.67
2019-02-07T18:56:46.833Z,98942.78
2019-02-07T19:01:48.623Z,98963.13
2019-02-07T19:06:50.851Z,98966.69
2019-02-07T19:11:52.255Z,98964.25
2019-02-07T19:16:53.684Z,98966.34
2019-02-07T19:21:57.148Z,98976.40
2019-02-07T19:26:58.196Z,98981.18
2019-02-07T19:31:59.739Z,98989.31
2019-02-07T19:37:01.286Z,98990.84
2019-02-07T19:42:04.383Z,98994.56
2019-02-07T19:47:05.943Z,99012.23
2019-02-07T19:52:08.591Z,99011.09
2019-02-07T19:57:10.158Z,99012.98
2019-02-07T20:02:11.574Z,99021.22
2019-02-07T20:07:13.424Z,99016.97
2019-02-07T20:12:16.175Z,99022.12
2019-02-07T20:17:17.556Z,99018.89
2019-02-07T20:22:20.467Z,99028.48
2019-02-07T20:27:31.692Z,99037.11
2019-02-07T20:32:37.466Z,99037.72
2019-02-07T20:37:38.783Z,99046.34
2019-02-07T20:42:45.410Z,99047.97
2019-02-07T20:47:48.598Z,99056.52
2019-02-07T20:52:50.847Z,99064.55
2019-02-07T20:57:53.249Z,99062.34
2019-02-07T21:02:56.147Z,99070.52
2019-02-07T21:07:57.714Z,99068.31
2019-02-07T21:12:59.212Z,99075.62
2019-02-07T21:18:00.876Z,99091.81
2019-02-07T21:23:03.368Z,99088.39
2019-02-07T21:28:06.185Z,99099.78
2019-02-07T21:33:07.566Z,99103.69
2019-02-07T21:38:08.994Z,99109.98
2019-02-07T21:43:10.422Z,99118.52
2019-02-07T21:48:12.224Z,99126.16
2019-02-07T21:53:14.414Z,99127.52
2019-02-07T21:58:15.917Z,99138.23
2019-02-07T22:03:18.396Z,99134.97
2019-02-07T22:08:19.807Z,99145.30
2019-02-07T22:13:21.244Z,99151.14
2019-02-07T22:18:22.929Z,99151.00
2019-02-07T22:23:24.210Z,99155.11
2019-02-07T22:28:25.747Z,99164.99
2019-02-07T22:33:27.137Z,99175.16
2019-02-07T22:38:28.464Z,99177.83
2019-02-07T22:43:29.757Z,99188.01
2019-02-07T22:48:31.151Z,99194.85
2019-02-07T22:53:32.468Z,99194.13
2019-02-07T22:58:33.961Z,99199.90
2019-02-07T23:03:37.900Z,99199.56
2019-02-07T23:08:39.525Z,99199.58
2019-02-07T23:13:40.835Z,99203.70
2019-02-07T23:18:42.582Z,99201.27
2019-02-07T23:23:44.558Z,99202.92
2019-02-07T23:28:46.136Z,99209.73
2019-02-07T23:33:47.619Z,99203.66
2019-02-07T23:38:48.905Z,99211.91
2019-02-07T23:43:55.285Z,99216.72
2019-02-07T23:48:56.968Z,99215.89
2019-02-07T23:53:58.267Z,99213.70
2019-02-07T23:58:59.595Z,99224.31
